createdAt,value
2018-05-19T00:00:08.580Z,99.90
2018-05-19T00:02:42.248Z,99.90
2018-05-19T00:05:15.891Z,99.90
2018-05-19T00:07:49.503Z,99.90
2018-05-19T00:10:23.756Z,99.90
2018-05-19T00:12:57.294Z,99.90
2018-05-19T00:15:30.817Z,99.90
2018-05-19T00:18:04.408Z,99.90
2018-05-19T00:20:37.991Z,99.90
2018-05-19T00:23:11.609Z,99.90
2018-05-19T00:25:45.180Z,99.90
2018-05-19T00:28:18.807Z,99.90
2018-05-19T00:30:52.369Z,99.90
2018-05-19T00:33:26.107Z,99.90
2018-05-19T00:35:59.722Z,99.90
2018-05-19T00:38:33.294Z,99.90
2018-05-19T00:41:07.618Z,99.90
2018-05-19T00:43:41.383Z,99.90
2018-05-19T00:46:14.963Z,99.90
2018-05-19T00:48:49.337Z,99.90
2018-05-19T00:51:23.645Z,99.90
2018-05-19T00:53:57.245Z,99.90
2018-05-19T00:56:31.289Z,99.90
2018-05-19T00:59:04.943Z,99.90
2018-05-19T01:01:38.590Z,99.90
2018-05-19T01:04:12.167Z,99.90
2018-05-19T01:06:45.727Z,99.90
2018-05-19T01:09:19.290Z,99.90
2018-05-19T01:11:52.903Z,99.90
2018-05-19T01:14:26.463Z,99.90
2018-05-19T01:17:00.295Z,99.90
2018-05-19T01:19:33.951Z,99.90
2018-05-19T01:22:08.208Z,99.90
2018-05-19T01:24:42.007Z,99.90
2018-05-19T01:27:15.529Z,99.90
2018-05-19T01:29:49.094Z,99.90
2018-05-19T01:32:22.638Z,99.90
2018-05-19T01:34:56.926Z,99.90
2018-05-19T01:37:30.448Z,99.90
2018-05-19T01:40:04.020Z,99.90
2018-05-19T01:42:38.356Z,99.90
2018-05-19T01:45:11.920Z,99.90
2018-05-19T01:47:45.505Z,99.90
2018-05-19T01:50:19.118Z,99.90
2018-05-19T01:52:52.668Z,99.90
2018-05-19T01:55:26.226Z,99.90
2018-05-19T01:57:59.822Z,99.90
2018-05-19T02:00:34.170Z,99.90
2018-05-19T02:03:07.753Z,99.90
2018-05-19T02:05:41.381Z,99.90
2018-05-19T02:08:15.676Z,99.90
2018-05-19T02:10:49.250Z,99.90
2018-05-19T02:13:23.701Z,99.90
2018-05-19T02:15:57.304Z,99.90
2018-05-19T02:18:31.041Z,99.90
2018-05-19T02:21:04.619Z,99.90
2018-05-19T02:23:38.496Z,99.90
2018-05-19T02:26:12.215Z,99.90
2018-05-19T02:28:45.816Z,99.90
2018-05-19T02:31:19.382Z,99.90
2018-05-19T02:33:53.000Z,99.90
2018-05-19T02:36:26.663Z,99.90
2018-05-19T02:39:00.224Z,99.90
2018-05-19T02:41:33.809Z,99.90
2018-05-19T02:44:07.400Z,99.90
2018-05-19T02:46:41.033Z,99.90
2018-05-19T02:49:14.638Z,99.90
2018-05-19T02:51:48.307Z,99.90
2018-05-19T02:54:21.836Z,99.90
2018-05-19T02:56:56.139Z,99.90
2018-05-19T02:59:29.894Z,99.90
2018-05-19T03:02:04.256Z,99.90
2018-05-19T03:04:37.799Z,99.90
2018-05-19T03:07:11.335Z,99.90
2018-05-19T03:09:44.870Z,99.90
2018-05-19T03:12:18.466Z,99.90
2018-05-19T03:14:52.126Z,99.90
2018-05-19T03:17:25.708Z,99.90
2018-05-19T03:19:59.276Z,99.90
2018-05-19T03:22:32.784Z,99.90
2018-05-19T03:25:07.085Z,99.90
2018-05-19T03:27:40.729Z,99.90
2018-05-19T03:30:14.291Z,99.90
2018-05-19T03:32:47.850Z,99.90
2018-05-19T03:35:21.429Z,99.90
2018-05-19T03:37:54.957Z,99.90
2018-05-19T03:40:29.324Z,99.90
2018-05-19T03:43:03.805Z,99.90
2018-05-19T03:45:37.448Z,99.90
2018-05-19T03:48:11.016Z,99.90
2018-05-19T03:50:44.752Z,99.90
2018-05-19T03:53:18.318Z,99.90
2018-05-19T03:55:51.958Z,99.90
2018-05-19T03:58:37.433Z,99.90
2018-05-19T04:01:23.042Z,99.90
2018-05-19T04:03:56.606Z,99.90
2018-05-19T04:06:30.128Z,99.90
2018-05-19T04:09:03.677Z,99.90
2018-05-19T04:11:38.209Z,99.90
2018-05-19T04:14:11.821Z,99.90
2018-05-19T04:16:46.140Z,99.90
2018-05-19T04:19:20.464Z,99.90
2018-05-19T04:21:53.952Z,99.90
2018-05-19T04:24:28.365Z,99.90
2018-05-19T04:27:01.936Z,99.90
2018-05-19T04:29:35.576Z,99.90
2018-05-19T04:32:09.093Z,99.90
2018-05-19T04:34:43.584Z,99.90
2018-05-19T04:37:17.771Z,99.90
2018-05-19T04:39:51.491Z,99.90
2018-05-19T04:42:25.727Z,99.90
2018-05-19T04:44:59.307Z,99.90
2018-05-19T04:47:32.912Z,99.90
2018-05-19T04:50:06.410Z,99.90
2018-05-19T04:52:39.976Z,99.90
2018-05-19T04:55:14.539Z,99.90
2018-05-19T04:57:48.155Z,99.90
2018-05-19T05:00:21.665Z,99.90
2018-05-19T05:02:55.233Z,99.90
2018-05-19T05:05:28.854Z,99.90
2018-05-19T05:08:02.554Z,99.90
2018-05-19T05:10:36.222Z,99.90
2018-05-19T05:13:09.785Z,99.90
2018-05-19T05:15:43.385Z,99.90
2018-05-19T05:18:17.766Z,99.90
2018-05-19T05:20:51.372Z,99.90
2018-05-19T05:23:25.019Z,99.90
2018-05-19T05:25:58.628Z,99.90
2018-05-19T05:28:32.262Z,99.90
2018-05-19T05:31:05.825Z,99.90
2018-05-19T05:33:39.455Z,99.90
2018-05-19T05:36:12.988Z,99.90
2018-05-19T05:38:46.695Z,99.90
2018-05-19T05:41:21.007Z,99.90
2018-05-19T05:43:55.526Z,99.90
2018-05-19T05:46:29.170Z,99.90
2018-05-19T05:49:02.727Z,99.90
2018-05-19T05:51:36.303Z,99.90
2018-05-19T05:54:09.856Z,99.90
2018-05-19T05:56:43.517Z,99.90
2018-05-19T05:59:17.116Z,99.90
2018-05-19T06:01:50.722Z,99.90
2018-05-19T06:04:24.349Z,99.90
2018-05-19T06:06:57.895Z,99.90
2018-05-19T06:09:31.469Z,99.90
2018-05-19T06:12:05.076Z,99.90
2018-05-19T06:14:38.705Z,99.90
2018-05-19T06:17:12.167Z,99.90
2018-05-19T06:19:45.814Z,99.90
2018-05-19T06:22:20.133Z,99.90
2018-05-19T06:24:53.817Z,99.90
2018-05-19T06:27:27.305Z,99.90
2018-05-19T06:30:00.952Z,99.90
2018-05-19T06:32:34.547Z,99.90
2018-05-19T06:35:08.304Z,99.90
2018-05-19T06:37:41.964Z,99.90
2018-05-19T06:40:15.556Z,99.90
2018-05-19T06:42:49.875Z,99.90
2018-05-19T06:45:23.377Z,99.90
2018-05-19T06:47:57.004Z,99.90
2018-05-19T06:50:30.587Z,99.90
2018-05-19T06:53:04.122Z,99.90
2018-05-19T06:55:37.797Z,99.90
2018-05-19T06:58:11.374Z,99.90
2018-05-19T07:00:44.922Z,99.90
2018-05-19T07:03:18.566Z,99.90
2018-05-19T07:05:52.125Z,99.90
2018-05-19T07:08:25.693Z,99.90
2018-05-19T07:10:59.267Z,99.90
2018-05-19T07:13:32.848Z,99.90
2018-05-19T07:16:06.558Z,99.90
2018-05-19T07:18:40.182Z,99.90
2018-05-19T07:21:13.857Z,99.90
2018-05-19T07:23:47.296Z,99.90
2018-05-19T07:26:20.916Z,99.90
2018-05-19T07:28:55.323Z,99.90
2018-05-19T07:31:28.897Z,99.90
2018-05-19T07:34:02.498Z,99.90
2018-05-19T07:36:36.098Z,99.90
2018-05-19T07:39:09.689Z,99.90
2018-05-19T07:41:43.213Z,99.90
2018-05-19T07:44:16.926Z,99.90
2018-05-19T07:46:50.609Z,99.90
2018-05-19T07:49:24.242Z,99.90
2018-05-19T07:51:58.574Z,99.90
2018-05-19T07:54:32.083Z,99.90
2018-05-19T07:57:05.601Z,99.90
2018-05-19T07:59:39.991Z,99.90
2018-05-19T08:02:13.736Z,99.90
2018-05-19T08:04:48.255Z,99.90
2018-05-19T08:07:21.942Z,99.90
2018-05-19T08:09:56.395Z,99.90
2018-05-19T08:12:30.094Z,99.90
2018-05-19T08:15:03.857Z,99.90
2018-05-19T08:17:37.645Z,99.90
2018-05-19T08:20:12.017Z,99.90
2018-05-19T08:22:46.447Z,99.90
2018-05-19T08:25:20.068Z,99.90
2018-05-19T08:27:53.617Z,99.90
2018-05-19T08:30:27.176Z,99.90
2018-05-19T08:33:00.746Z,99.90
2018-05-19T08:35:34.396Z,99.90
2018-05-19T08:38:08.148Z,99.90
2018-05-19T08:40:41.669Z,99.90
2018-05-19T08:43:15.252Z,99.90
2018-05-19T08:45:48.965Z,99.90
2018-05-19T08:48:23.282Z,99.90
2018-05-19T08:50:56.989Z,99.90
2018-05-19T08:53:31.405Z,99.90
2018-05-19T08:56:04.928Z,99.90
2018-05-19T08:58:39.315Z,99.90
2018-05-19T09:01:12.995Z,99.90
2018-05-19T09:03:47.342Z,99.90
2018-05-19T09:06:20.881Z,99.90
2018-05-19T09:08:55.363Z,99.90
2018-05-19T09:11:29.111Z,99.90
2018-05-19T09:14:02.762Z,99.90
2018-05-19T09:16:36.368Z,99.90
2018-05-19T09:19:09.961Z,99.90
2018-05-19T09:21:43.500Z,99.90
2018-05-19T09:24:17.055Z,99.90
2018-05-19T09:26:50.670Z,99.90
2018-05-19T09:29:24.254Z,99.90
2018-05-19T09:31:58.591Z,99.90
2018-05-19T09:34:33.119Z,99.90
2018-05-19T09:37:06.722Z,99.90
2018-05-19T09:39:40.303Z,99.90
2018-05-19T09:42:14.636Z,95.80
2018-05-19T09:44:48.322Z,95.70
2018-05-19T09:47:21.904Z,94.30
2018-05-19T09:49:55.441Z,95.70
2018-05-19T09:52:29.019Z,94.10
2018-05-19T09:55:02.542Z,94.80
2018-05-19T09:57:36.111Z,93.30
2018-05-19T10:00:09.623Z,94.10
2018-05-19T10:02:49.601Z,93.90
2018-05-19T10:05:23.264Z,93.50
2018-05-19T10:07:57.590Z,93.50
2018-05-19T10:10:31.202Z,93.40
2018-05-19T10:13:04.798Z,93.40
2018-05-19T10:15:38.412Z,94.80
2018-05-19T10:18:11.983Z,93.70
2018-05-19T10:20:45.527Z,94.90
2018-05-19T10:23:19.102Z,93.60
2018-05-19T10:25:52.630Z,92.10
2018-05-19T10:28:26.119Z,93.40
2018-05-19T10:30:59.660Z,92.40
2018-05-19T10:33:33.209Z,91.90
2018-05-19T10:36:07.512Z,90.20
2018-05-19T10:38:41.929Z,90.20
2018-05-19T10:41:15.429Z,90.10
2018-05-19T10:43:48.984Z,91.60
2018-05-19T10:46:22.523Z,90.10
2018-05-19T10:48:56.235Z,89.90
2018-05-19T10:51:29.822Z,84.30
2018-05-19T10:54:03.357Z,85.00
2018-05-19T10:56:36.965Z,82.50
2018-05-19T10:59:10.529Z,82.60
2018-05-19T11:01:44.052Z,84.50
2018-05-19T11:04:17.739Z,85.60
2018-05-19T11:06:51.294Z,86.50
2018-05-19T11:09:24.859Z,89.10
2018-05-19T11:11:58.437Z,86.10
2018-05-19T11:14:32.790Z,86.20
2018-05-19T11:17:06.330Z,86.30
2018-05-19T11:19:40.696Z,84.80
2018-05-19T11:22:15.269Z,84.80
2018-05-19T11:24:48.823Z,84.80
2018-05-19T11:27:22.504Z,85.00
2018-05-19T11:29:56.083Z,85.10
2018-05-19T11:32:30.432Z,81.90
2018-05-19T11:35:03.983Z,81.90
2018-05-19T11:37:37.568Z,79.80
2018-05-19T11:40:11.122Z,80.30
2018-05-19T11:42:44.696Z,80.50
2018-05-19T11:45:18.246Z,80.40
2018-05-19T11:47:51.813Z,78.10
2018-05-19T11:50:25.343Z,78.30
2018-05-19T11:52:58.923Z,80.40
2018-05-19T11:55:32.518Z,76.20
2018-05-19T11:58:06.110Z,77.40
2018-05-19T12:00:39.749Z,76.90
2018-05-19T12:03:13.414Z,77.20
2018-05-19T12:05:47.030Z,74.90
2018-05-19T12:08:20.606Z,73.80
2018-05-19T12:10:54.205Z,73.40
2018-05-19T12:13:27.705Z,76.80
2018-05-19T12:16:01.307Z,76.50
2018-05-19T12:18:34.968Z,75.90
2018-05-19T12:21:09.289Z,79.00
2018-05-19T12:23:42.805Z,78.90
2018-05-19T12:26:16.367Z,79.90
2018-05-19T12:28:49.954Z,77.70
2018-05-19T12:31:24.273Z,76.70
2018-05-19T12:33:57.900Z,76.70
2018-05-19T12:36:31.484Z,77.70
2018-05-19T12:39:06.129Z,78.20
2018-05-19T12:41:39.993Z,77.40
2018-05-19T12:44:13.696Z,75.80
2018-05-19T12:46:47.284Z,75.80
2018-05-19T12:49:21.213Z,76.60
2018-05-19T12:51:55.627Z,77.20
2018-05-19T12:54:29.324Z,77.10
2018-05-19T12:57:02.911Z,75.90
2018-05-19T12:59:36.472Z,77.60
2018-05-19T13:02:10.124Z,77.30
2018-05-19T13:04:43.632Z,77.80
2018-05-19T13:07:17.160Z,76.60
2018-05-19T13:09:50.854Z,76.60
2018-05-19T13:12:25.350Z,74.20
2018-05-19T13:14:59.088Z,74.10
2018-05-19T13:17:32.628Z,75.20
2018-05-19T13:20:06.205Z,75.10
2018-05-19T13:22:39.762Z,75.60
2018-05-19T13:25:13.345Z,74.60
2018-05-19T13:27:46.910Z,74.90
2018-05-19T13:30:20.474Z,75.10
2018-05-19T13:32:54.777Z,75.80
2018-05-19T13:35:29.274Z,75.90
2018-05-19T13:38:02.811Z,75.90
2018-05-19T13:40:36.375Z,75.70
2018-05-19T13:43:09.935Z,74.70
2018-05-19T13:45:43.495Z,76.00
2018-05-19T13:48:17.087Z,81.20
2018-05-19T13:50:50.609Z,85.20
2018-05-19T13:53:24.916Z,89.40
2018-05-19T13:55:58.505Z,89.40
2018-05-19T13:58:32.066Z,91.50
2018-05-19T14:01:05.579Z,93.50
2018-05-19T14:03:40.023Z,94.10
2018-05-19T14:06:14.439Z,94.30
2018-05-19T14:08:48.038Z,94.30
2018-05-19T14:11:21.631Z,94.70
2018-05-19T14:13:55.991Z,96.80
2018-05-19T14:16:29.564Z,96.80
2018-05-19T14:19:03.163Z,97.90
2018-05-19T14:21:36.740Z,98.70
2018-05-19T14:24:10.276Z,99.40
2018-05-19T14:26:43.778Z,99.90
2018-05-19T14:29:17.306Z,99.90
2018-05-19T14:31:50.870Z,99.90
2018-05-19T14:34:25.215Z,99.90
2018-05-19T14:36:59.534Z,99.90
2018-05-19T14:39:33.079Z,99.90
2018-05-19T14:42:06.681Z,99.90
2018-05-19T14:44:40.216Z,99.90
2018-05-19T14:47:14.515Z,99.90
2018-05-19T14:49:48.195Z,99.90
2018-05-19T14:52:21.799Z,99.90
2018-05-19T14:54:56.156Z,99.90
2018-05-19T14:57:29.720Z,99.90
2018-05-19T15:00:03.336Z,99.90
2018-05-19T15:02:37.066Z,99.90
2018-05-19T15:05:11.365Z,99.90
2018-05-19T15:07:45.042Z,99.90
2018-05-19T15:10:18.790Z,99.90
2018-05-19T15:12:53.079Z,99.90
2018-05-19T15:15:26.664Z,99.90
2018-05-19T15:18:00.264Z,99.90
2018-05-19T15:20:33.869Z,99.90
2018-05-19T15:23:07.507Z,99.90
2018-05-19T15:25:41.087Z,99.90
2018-05-19T15:28:14.691Z,99.90
2018-05-19T15:30:48.291Z,99.90
2018-05-19T15:33:21.826Z,99.90
2018-05-19T15:35:55.395Z,99.90
2018-05-19T15:38:28.938Z,99.90
2018-05-19T15:41:02.697Z,99.90
2018-05-19T15:43:36.287Z,99.90
2018-05-19T15:46:09.893Z,99.90
2018-05-19T15:48:43.480Z,99.90
2018-05-19T15:51:17.031Z,99.90
2018-05-19T15:53:50.623Z,99.90
2018-05-19T15:56:24.182Z,99.90
2018-05-19T15:58:57.702Z,99.90
2018-05-19T16:01:31.222Z,99.90
2018-05-19T16:04:04.763Z,99.90
2018-05-19T16:06:38.273Z,99.90
2018-05-19T16:09:12.910Z,99.90
2018-05-19T16:11:46.605Z,99.90
2018-05-19T16:14:20.299Z,99.90
2018-05-19T16:16:55.010Z,99.90
2018-05-19T16:19:28.716Z,99.90
2018-05-19T16:22:02.262Z,99.90
2018-05-19T16:24:35.834Z,99.90
2018-05-19T16:27:09.462Z,99.90
2018-05-19T16:29:43.001Z,99.90
2018-05-19T16:32:17.521Z,99.90
2018-05-19T16:34:51.111Z,99.90
2018-05-19T16:37:24.671Z,99.90
2018-05-19T16:39:59.005Z,99.90
2018-05-19T16:42:32.713Z,99.90
2018-05-19T16:45:06.260Z,99.90
2018-05-19T16:47:39.770Z,99.90
2018-05-19T16:50:13.918Z,99.90
2018-05-19T16:52:47.502Z,99.90
2018-05-19T16:55:21.256Z,99.90
2018-05-19T16:57:54.780Z,99.90
2018-05-19T17:00:28.327Z,99.90
2018-05-19T17:03:01.880Z,99.90
2018-05-19T17:05:35.385Z,99.90
2018-05-19T17:08:09.896Z,99.90
2018-05-19T17:10:43.493Z,99.90
2018-05-19T17:13:17.073Z,99.90
2018-05-19T17:15:50.637Z,99.90
2018-05-19T17:18:24.217Z,99.90
2018-05-19T17:20:57.824Z,99.90
2018-05-19T17:23:31.469Z,99.90
2018-05-19T17:26:04.978Z,99.90
2018-05-19T17:28:38.569Z,99.90
2018-05-19T17:31:12.862Z,99.90
2018-05-19T17:33:46.470Z,99.90
2018-05-19T17:36:20.027Z,99.90
2018-05-19T17:38:53.633Z,99.90
2018-05-19T17:41:27.176Z,99.90
2018-05-19T17:44:00.741Z,99.90
2018-05-19T17:46:34.341Z,99.90
2018-05-19T17:49:07.981Z,99.90
2018-05-19T17:51:41.540Z,99.90
2018-05-19T17:54:15.187Z,99.90
2018-05-19T17:56:48.783Z,99.90
2018-05-19T17:59:22.369Z,99.90
2018-05-19T18:01:55.973Z,99.90
2018-05-19T18:04:29.748Z,99.90
2018-05-19T18:07:03.282Z,99.90
2018-05-19T18:09:36.860Z,99.90
2018-05-19T18:12:11.265Z,99.90
2018-05-19T18:14:45.005Z,99.90
2018-05-19T18:17:18.629Z,99.90
2018-05-19T18:19:52.081Z,99.90
2018-05-19T18:22:25.678Z,99.90
2018-05-19T18:24:59.330Z,99.90
2018-05-19T18:27:33.097Z,99.90
2018-05-19T18:30:07.392Z,99.90
2018-05-19T18:32:41.016Z,99.90
2018-05-19T18:35:14.755Z,99.90
2018-05-19T18:37:48.557Z,99.90
2018-05-19T18:40:26.981Z,99.90
2018-05-19T18:43:01.569Z,99.90
2018-05-19T18:45:35.224Z,99.90
2018-05-19T18:48:09.306Z,99.90
2018-05-19T18:50:43.009Z,99.90
2018-05-19T18:53:16.540Z,99.90
2018-05-19T18:55:50.078Z,99.90
2018-05-19T18:58:23.673Z,99.90
2018-05-19T19:00:57.335Z,99.90
2018-05-19T19:03:31.690Z,99.90
2018-05-19T19:06:06.106Z,99.90
2018-05-19T19:08:39.859Z,99.90
2018-05-19T19:11:13.472Z,99.90
2018-05-19T19:13:47.270Z,99.90
2018-05-19T19:16:20.841Z,99.90
2018-05-19T19:18:54.435Z,99.90
2018-05-19T19:21:28.021Z,99.90
2018-05-19T19:24:01.620Z,99.90
2018-05-19T19:26:35.564Z,99.90
2018-05-19T19:29:09.325Z,99.90
2018-05-19T19:31:42.842Z,99.90
2018-05-19T19:34:16.517Z,99.90
2018-05-19T19:36:50.063Z,99.90
2018-05-19T19:39:23.635Z,99.90
2018-05-19T19:41:57.211Z,99.90
2018-05-19T19:44:30.775Z,99.90
2018-05-19T19:47:04.356Z,99.90
2018-05-19T19:49:37.958Z,99.90
2018-05-19T19:52:11.654Z,99.90
2018-05-19T19:54:45.973Z,99.90
2018-05-19T19:57:19.663Z,99.90
2018-05-19T19:59:53.247Z,99.90
2018-05-19T20:02:26.858Z,99.90
2018-05-19T20:05:00.456Z,99.90
2018-05-19T20:07:35.072Z,99.90
2018-05-19T20:10:08.578Z,99.90
2018-05-19T20:12:42.198Z,99.90
2018-05-19T20:15:16.502Z,99.90
2018-05-19T20:17:50.191Z,99.90
2018-05-19T20:20:23.891Z,99.90
2018-05-19T20:22:57.541Z,99.90
2018-05-19T20:25:31.134Z,99.90
2018-05-19T20:28:04.734Z,99.90
2018-05-19T20:30:38.328Z,99.90
2018-05-19T20:33:11.935Z,99.90
2018-05-19T20:35:45.502Z,99.90
2018-05-19T20:38:19.103Z,99.90
2018-05-19T20:40:52.717Z,99.90
2018-05-19T20:43:27.047Z,99.90
2018-05-19T20:46:00.855Z,99.90
2018-05-19T20:48:34.397Z,99.90
2018-05-19T20:51:08.085Z,99.90
2018-05-19T20:53:41.642Z,99.90
2018-05-19T20:56:15.304Z,99.90
2018-05-19T20:58:49.068Z,99.90
2018-05-19T21:01:22.616Z,99.90
2018-05-19T21:03:56.269Z,99.90
2018-05-19T21:06:29.855Z,99.90
2018-05-19T21:09:03.442Z,99.90
2018-05-19T21:11:37.774Z,99.90
2018-05-19T21:14:11.554Z,99.90
2018-05-19T21:16:45.150Z,99.90
2018-05-19T21:19:18.781Z,99.90
2018-05-19T21:21:52.306Z,99.90
2018-05-19T21:24:25.975Z,99.90
2018-05-19T21:26:59.498Z,99.90
2018-05-19T21:29:33.042Z,99.90
2018-05-19T21:32:06.592Z,99.90
2018-05-19T21:34:40.164Z,99.90
2018-05-19T21:37:13.649Z,99.90
2018-05-19T21:39:47.306Z,99.90
2018-05-19T21:42:20.821Z,99.90
2018-05-19T21:44:54.446Z,99.90
2018-05-19T21:47:28.211Z,99.90
2018-05-19T21:50:01.875Z,99.90
2018-05-19T21:52:35.373Z,99.90
2018-05-19T21:55:09.691Z,99.90
2018-05-19T21:57:43.431Z,99.90
2018-05-19T22:00:17.717Z,99.90
2018-05-19T22:02:51.529Z,99.90
2018-05-19T22:05:25.064Z,99.90
2018-05-19T22:07:58.731Z,99.90
2018-05-19T22:10:32.325Z,99.90
2018-05-19T22:13:05.868Z,99.90
2018-05-19T22:15:39.432Z,99.90
2018-05-19T22:18:13.755Z,99.90
2018-05-19T22:20:48.306Z,99.90
2018-05-19T22:23:22.037Z,99.90
2018-05-19T22:25:55.549Z,99.90
2018-05-19T22:28:29.090Z,99.90
2018-05-19T22:31:02.671Z,99.90
2018-05-19T22:33:36.254Z,99.90
2018-05-19T22:36:09.844Z,99.90
2018-05-19T22:38:44.177Z,99.90
2018-05-19T22:41:17.779Z,99.90
2018-05-19T22:43:51.286Z,99.90
2018-05-19T22:46:24.868Z,99.90
2018-05-19T22:48:58.477Z,99.90
2018-05-19T22:51:32.074Z,99.90
2018-05-19T22:54:06.590Z,99.90
2018-05-19T22:56:41.018Z,99.90
2018-05-19T22:59:14.711Z,99.90
2018-05-19T23:01:49.166Z,99.90
2018-05-19T23:04:22.860Z,99.90
2018-05-19T23:06:57.183Z,99.90
2018-05-19T23:09:30.786Z,99.90
2018-05-19T23:12:04.313Z,99.90
2018-05-19T23:14:37.877Z,99.90
2018-05-19T23:17:11.464Z,99.90
2018-05-19T23:19:45.064Z,99.90
2018-05-19T23:22:31.541Z,99.90
2018-05-19T23:25:05.179Z,99.90
2018-05-19T23:27:38.750Z,99.90
2018-05-19T23:30:12.549Z,99.90
2018-05-19T23:32:46.131Z,99.90
2018-05-19T23:35:19.784Z,99.90
2018-05-19T23:37:54.126Z,99.90
2018-05-19T23:40:27.654Z,99.90
2018-05-19T23:43:02.033Z,99.90
2018-05-19T23:45:35.704Z,99.90
2018-05-19T23:48:09.593Z,99.90
2018-05-19T23:50:44.245Z,99.90
2018-05-19T23:53:18.688Z,99.90
2018-05-19T23:55:52.607Z,99.90
2018-05-19T23:58:27.036Z,99.90
